createdAt,value
2023-11-07T00:07:50.299Z,99980.98
2023-11-07T00:22:42.434Z,99994.24
2023-11-07T00:37:36.235Z,99993.19
2023-11-07T00:52:29.796Z,99996.17
2023-11-07T01:07:21.948Z,99995.43
2023-11-07T01:22:13.846Z,100002.05
2023-11-07T01:37:04.527Z,100001.41
2023-11-07T01:52:06.044Z,99999.28
2023-11-07T02:07:08.468Z,100003.00
2023-11-07T02:21:59.929Z,100000.89
2023-11-07T02:36:53.552Z,100004.70
2023-11-07T02:51:46.630Z,100006.08
2023-11-07T03:06:38.224Z,100003.33
2023-11-07T03:21:30.872Z,100009.62
2023-11-07T03:36:23.075Z,100004.13
2023-11-07T04:36:20.900Z,100012.39
2023-11-07T06:35:25.913Z,100047.11
2023-11-07T06:50:16.449Z,100063.64
2023-11-07T07:05:08.950Z,100075.75
2023-11-07T07:20:01.486Z,100084.25
2023-11-07T07:34:53.033Z,100108.45
2023-11-07T07:49:45.496Z,100116.38
2023-11-07T08:04:48.506Z,100102.13
2023-11-07T08:19:39.828Z,100104.85
2023-11-07T08:34:32.025Z,100127.67
2023-11-07T08:49:24.193Z,100127.60
2023-11-07T09:04:15.583Z,100138.55
2023-11-07T09:19:07.618Z,100164.73
2023-11-07T09:33:58.883Z,100167.67
2023-11-07T09:48:49.960Z,100181.95
2023-11-07T10:03:41.696Z,100198.46
2023-11-07T10:18:32.444Z,100210.70
2023-11-07T10:33:28.303Z,100209.92
2023-11-07T10:48:24.031Z,100216.03
2023-11-07T11:03:16.611Z,100198.10
2023-11-07T11:18:09.570Z,100191.64
2023-11-07T11:33:09.609Z,100196.63
2023-11-07T11:48:05.850Z,100204.25
2023-11-07T12:02:59.508Z,100181.00
2023-11-07T12:17:52.775Z,100178.17
2023-11-07T12:32:46.957Z,100168.12
2023-11-07T12:47:42.667Z,100174.08
2023-11-07T13:02:34.588Z,100169.07
2023-11-07T13:17:27.630Z,100172.80
2023-11-07T13:32:17.177Z,100175.59
2023-11-07T13:47:08.087Z,100174.36
2023-11-07T14:01:59.988Z,100194.45
2023-11-07T14:16:51.074Z,100180.20
2023-11-07T14:46:37.511Z,100198.10
2023-11-07T15:01:28.893Z,100198.95
2023-11-07T15:16:21.112Z,100225.94
2023-11-07T15:46:04.258Z,100245.34
2023-11-07T16:15:49.521Z,100274.64
2023-11-07T16:45:32.579Z,100315.14
2023-11-07T18:30:07.366Z,100363.77
2023-11-07T18:45:01.367Z,100363.86
2023-11-07T18:59:54.512Z,100380.95
2023-11-07T19:14:45.545Z,100398.76
2023-11-07T19:29:37.267Z,100402.86
2023-11-07T19:44:28.826Z,100425.98
2023-11-07T19:59:19.896Z,100422.98
2023-11-07T20:14:10.206Z,100427.22
2023-11-07T20:29:01.274Z,100433.06
2023-11-07T20:43:53.787Z,100435.98
2023-11-07T20:58:45.501Z,100437.80
2023-11-07T21:13:37.036Z,100442.53
2023-11-07T21:28:30.001Z,100446.50
2023-11-07T21:43:22.501Z,100444.91
2023-11-07T21:58:14.013Z,100438.61
2023-11-07T22:13:05.237Z,100442.33
2023-11-07T22:27:56.284Z,100445.47
2023-11-07T22:42:48.202Z,100452.06
2023-11-07T22:57:39.778Z,100451.52
2023-11-07T23:12:31.685Z,100467.37
2023-11-07T23:27:23.356Z,100485.90
2023-11-07T23:42:16.199Z,100488.15
2023-11-07T23:57:10.437Z,100489.16
